x

Santa Maria - 21nm Nw Of Point Arguello, Ca (46011) Wave Buoy

7:50pm - Sun 29th May 2016 All times are PDT. -7 hours from GMT.

  • Sig Wave height 6.6ft
  • Swell Direction
  • Peak Period 9s
  • Average Period 8s
  • Wind
    7mph, 11mph gusts
  • Sea Temp 56°f
  • Air Temp 56°f
  • Sea Pressure 1016.5mb
  • Santa Maria - 21nm Nw Of Point Arguello, Ca
  • Santa Maria - 21nm Nw Of Point Arguello, Ca

More Historic Weather Station data

Upgrade to MSW Pro to gain access to the past 30 days of data for over 8000 Wavebouys and Weather Stations around the globe.

Join Pro

Comparision Forecast

View Surf forecast
   
Sun 05/29 7:50pm 6.5ft 9s 8s 7 11 mph 1016.5mb 56f 56f
6:50pm 6.5ft 10s 8s 9 11 mph 1016.3mb 57f 56f
5:50pm 6ft 10s 8s 9 11 mph 1016.1mb 56f 56f
3:50pm 6ft 9s 7s 9 11 mph 1016.7mb 57f 56f
2:50pm 6ft 9s 7s 7 9 mph 1017.4mb 57f 56f
1:50pm 6ft 15s 7s 4 7 mph 1017.8mb 57f 56f
12:50pm 6ft 9s 8s 7 9 mph 1017.9mb 57f 56f
11:50am 7ft 9s 8s 4 7 mph 1018.1mb 56f 57f
10:50am 6.5ft 9s 8s 4 7 mph 1018mb 56f 56f
9:50am 7ft 10s  -  4
mph
1017.9mb 56f 56f
8:50am 7ft 8s 8s 4 7 mph 1017.5mb 56f 56f
7:50am 6.5ft 8s 8s 4 7 mph 1016.8mb 56f 55f
6:50am 6.5ft 9s 8s 4 7 mph 1016.3mb 56f 55f
5:50am 6ft 9s 7s 4 7 mph 1015.5mb 56f 55f
4:50am 6.5ft 10s 8s 2 4 mph 1015.2mb 56f 55f
3:50am 6.5ft 10s 8s  -  2 mph 1014.9mb 56f 55f
2:50am 6ft 9s 8s 4 7 mph 1014.9mb 56f 55f
1:50am 6ft 10s 8s 4 7 mph 1014.9mb 56f 55f
12:50am 6.5ft 10s 8s 4 7 mph 1014.9mb 56f 55f
Sat 05/28 11:50pm 6.5ft 10s 8s  -  2 mph 1015mb 56f 55f
10:50pm 6.5ft 9s 8s 4 7 mph 1014.5mb 56f 56f
9:50pm 8ft 10s 8s 2 4 mph 1014.4mb 56f 56f
8:50pm 8ft 10s 8s  -  2 mph 1014mb 56f 56f
7:50pm 8ft 10s 8s 4 7 mph 1013.3mb 56f 56f
6:50pm 7.5ft 10s 8s 4 7 mph 1013mb 56f 56f
5:50pm 8.5ft 10s 8s 4 7 mph 1012.7mb 56f 56f
4:50pm 7.5ft 10s 7s 11 13 mph 1012.6mb 56f 57f
3:50pm 9ft 10s 7s 11 13 mph 1012.7mb 56f 57f
2:50pm 9ft 11s 8s 13 16 mph 1012.9mb 56f 57f
1:50pm 8ft 11s 7s 9 11 mph 1013mb 56f 57f
12:50pm 8ft 11s 8s 9 11 mph 1013.1mb 56f 56f
11:50am 8.5ft 11s 8s 9 11 mph 1013.2mb 56f 56f
10:50am 8ft 10s 8s 11 13 mph 1012.9mb 55f 55f
9:50am 9.5ft 10s 8s 11 13 mph 1012.6mb 55f 55f
8:50am 9ft 10s 8s 9 13 mph 1012.2mb 55f 53f
7:50am 8.5ft 10s 8s 9 11 mph 1011.8mb 55f 53f
6:50am 7ft 10s 7s 4 7 mph 1011.3mb 55f 54f
5:50am 7ft 11s 7s 2 4 mph 1010.8mb 55f 54f
4:50am 6.5ft 11s 8s 4 7 mph 1010.6mb 55f 54f
3:50am 6ft 10s 7s 4
mph
1010.5mb 56f 54f
2:50am 6ft 10s 8s 2 4 mph 1010.7mb 56f 54f
1:50am 7ft 10s 8s 7
mph
1010.9mb 56f 54f
12:50am 7ft 11s 8s 7
mph
1011.6mb 56f 55f
Fri 05/27 11:50pm 7ft 10s 8s 7 9 mph 1012mb 56f 55f
10:50pm 8ft 11s 8s 4 9 mph 1012.6mb 56f 54f
9:50pm 8ft 10s 8s 7 11 mph 1012.9mb 56f 54f
8:50pm 7ft 11s 7s 9 13 mph 1012.6mb 56f 54f
7:50pm 8ft 10s 7s 11 16 mph 1012.5mb 55f 54f
6:50pm 8.5ft 11s 7s 11 13 mph 1012.3mb 56f 55f
5:50pm 8.5ft 10s 7s 13 16 mph 1012.3mb 56f 55f
4:50pm 8ft 11s 7s 13 18 mph 1012.8mb 56f 55f
3:50pm 7ft 10s 7s 16 20 mph 1013.2mb 56f 55f
2:50pm 7ft 11s 7s 18 20 mph 1013.5mb 55f 55f
1:50pm 8ft 10s 7s 18 20 mph 1013.9mb 55f 55f
12:50pm 7ft 10s 7s 16 20 mph 1014.5mb 55f 54f
11:50am 7ft 10s 6s 16 18 mph 1015.1mb 55f 54f
10:50am 7ft 10s 7s 16 18 mph 1015.4mb 55f 54f
9:50am 7.5ft 10s 7s 18 22 mph 1015.6mb 55f 54f
8:50am 7ft 10s 7s 16 18 mph 1016.2mb 55f 54f
7:50am 7ft 10s 6s 16 20 mph 1016.1mb 55f 54f
6:50am 7ft 8s 6s 18 22 mph 1016mb 55f 53f
5:50am 7.5ft 9s 6s 18 22 mph 1015.7mb 55f 54f
4:50am 7ft 9s 6s 18 22 mph 1015.5mb 55f 54f
3:50am 7.5ft 7s 6s 20 22 mph 1015.7mb 55f 54f
2:50am 7ft 9s 6s 20 25 mph 1016.1mb 55f 55f
1:50am 6.5ft 9s 6s 20 25 mph 1016.6mb 55f 55f
12:50am 7ft 9s 6s 18 22 mph 1016.9mb 55f 55f
Thu 05/26 11:50pm 6.5ft 9s 6s 18 22 mph 1017mb 55f 55f
10:50pm 7ft 9s 6s 20 25 mph 1017.4mb 55f 55f
9:50pm 7.5ft 9s 6s 22 25 mph 1017.4mb 56f 55f
8:50pm 7.5ft 9s 6s 20 25 mph 1017.2mb 56f 55f
7:50pm 7ft 9s 6s 22 25 mph 1017.1mb 56f 55f
6:50pm 7.5ft 9s 6s 22 27 mph 1017.2mb 56f 55f
5:50pm 6.5ft 8s 6s 22 27 mph 1017.6mb 56f 56f
3:50pm 6ft 8s 6s 18 22 mph 1019mb 56f 56f
2:50pm 5ft 8s 6s 18 22 mph 1019.6mb 56f 56f
1:50pm 5.5ft 8s 6s 18 20 mph 1020mb 56f 56f
12:50pm 5ft 8s 6s 13 18 mph 1020.5mb 57f 56f
11:50am 5ft 7s 6s 13 16 mph 1020.9mb 57f 56f
10:50am 5ft 7s 6s 16 18 mph 1021mb 57f 56f
9:50am 6ft 7s 5s 20 22 mph 1020.8mb 57f 55f
8:50am 6ft 7s 5s 20 25 mph 1020.7mb 57f 55f
7:50am 6ft 7s 5s 20 25 mph 1020.7mb 57f 55f
6:50am 6ft 7s 6s 20 22 mph 1020.3mb 57f 55f
5:50am 7ft 8s 6s 22 27 mph 1019.5mb 57f 55f
4:50am 7ft 7s 6s 22 27 mph 1019.2mb 57f 55f